createdAt,value
2022-12-27T00:02:06.119Z,3.15
2022-12-27T00:04:32.764Z,2.80
2022-12-27T00:06:59.408Z,2.17
2022-12-27T00:09:26.058Z,1.98
2022-12-27T00:11:58.071Z,3.47
2022-12-27T00:14:26.375Z,4.30
2022-12-27T00:16:53.044Z,1.83
2022-12-27T00:19:19.845Z,2.45
2022-12-27T00:21:46.616Z,4.03
2022-12-27T00:24:13.419Z,2.22
2022-12-27T00:26:40.993Z,1.67
2022-12-27T00:29:08.054Z,3.20
2022-12-27T00:31:35.293Z,1.58
2022-12-27T00:34:05.719Z,1.88
2022-12-27T00:36:32.680Z,3.17
2022-12-27T00:39:00.287Z,4.00
2022-12-27T00:41:27.941Z,2.70
2022-12-27T00:43:54.632Z,1.73
2022-12-27T00:46:21.587Z,2.20
2022-12-27T00:48:49.071Z,2.28
2022-12-27T00:51:19.336Z,1.95
2022-12-27T00:53:46.810Z,2.20
2022-12-27T00:56:31.603Z,1.48
2022-12-27T00:59:01.131Z,2.17
2022-12-27T01:01:29.932Z,2.33
2022-12-27T01:03:58.131Z,2.03
2022-12-27T01:06:29.059Z,1.67
2022-12-27T01:08:56.747Z,1.77
2022-12-27T01:11:26.203Z,2.88
2022-12-27T01:13:57.594Z,4.35
2022-12-27T01:16:25.805Z,2.88
2022-12-27T01:18:53.066Z,4.57
2022-12-27T01:21:21.935Z,3.40
2022-12-27T01:23:49.832Z,5.68
2022-12-27T01:26:19.638Z,2.13
2022-12-27T01:28:47.636Z,2.85
2022-12-27T01:31:21.426Z,1.27
2022-12-27T01:33:48.703Z,3.20
2022-12-27T01:36:20.301Z,3.60
2022-12-27T01:38:48.801Z,0.77
2022-12-27T01:41:47.750Z,1.50
2022-12-27T01:44:39.633Z,2.38
2022-12-27T01:47:12.382Z,3.23
2022-12-27T01:49:59.809Z,4.85
2022-12-27T01:52:35.202Z,2.33
2022-12-27T01:55:10.707Z,2.58
2022-12-27T01:57:37.493Z,1.88
2022-12-27T02:00:05.167Z,3.22
2022-12-27T02:02:32.449Z,1.70
2022-12-27T02:04:59.298Z,3.67
2022-12-27T02:07:36.667Z,6.07
2022-12-27T02:10:04.111Z,4.60
2022-12-27T02:12:31.972Z,1.85
2022-12-27T02:14:58.995Z,2.10
2022-12-27T02:17:29.325Z,3.13
2022-12-27T02:20:16.006Z,1.50
2022-12-27T02:23:10.493Z,2.05
2022-12-27T02:25:59.070Z,3.47
2022-12-27T02:28:58.960Z,4.05
2022-12-27T02:31:41.002Z,3.00
2022-12-27T02:34:17.261Z,1.73
2022-12-27T02:36:46.013Z,2.67
2022-12-27T02:39:15.657Z,2.50
2022-12-27T02:42:02.998Z,2.20
2022-12-27T02:44:48.949Z,1.30
2022-12-27T02:47:38.761Z,1.95
2022-12-27T02:50:27.051Z,1.83
2022-12-27T02:53:05.290Z,2.35
2022-12-27T02:56:40.238Z,2.15
2022-12-27T03:00:02.245Z,2.15
2022-12-27T03:03:04.700Z,2.20
2022-12-27T03:06:17.492Z,4.13
2022-12-27T03:09:04.331Z,2.90
2022-12-27T03:12:02.126Z,2.05
2022-12-27T03:14:56.459Z,1.30
2022-12-27T03:17:49.077Z,1.30
2022-12-27T03:20:36.864Z,2.35
2022-12-27T03:23:22.555Z,7.53
2022-12-27T03:25:51.700Z,1.75
2022-12-27T03:28:41.330Z,4.38
2022-12-27T03:31:51.339Z,3.92
2022-12-27T03:34:31.873Z,4.28
2022-12-27T03:37:50.608Z,0.90
2022-12-27T03:41:06.459Z,2.72
2022-12-27T03:43:34.902Z,2.15
2022-12-27T03:46:34.363Z,2.10
2022-12-27T03:49:16.359Z,1.30
2022-12-27T03:52:05.837Z,3.42
2022-12-27T03:54:39.502Z,1.70
2022-12-27T03:57:09.861Z,3.72
2022-12-27T03:59:36.546Z,1.13
2022-12-27T04:02:05.396Z,0.98
2022-12-27T04:04:33.094Z,2.25
2022-12-27T04:07:00.041Z,2.40
2022-12-27T04:09:45.362Z,1.92
2022-12-27T04:12:31.167Z,1.33
2022-12-27T04:15:16.505Z,1.15
2022-12-27T04:18:04.368Z,2.55
2022-12-27T04:20:50.779Z,1.58
2022-12-27T04:23:35.989Z,0.75
2022-12-27T04:26:21.406Z,4.03
2022-12-27T04:29:06.738Z,2.22
2022-12-27T04:31:51.820Z,1.25
2022-12-27T04:34:37.162Z,1.08
2022-12-27T04:37:04.167Z,0.50
2022-12-27T04:39:30.903Z,2.35
2022-12-27T04:42:16.251Z,1.30
2022-12-27T04:45:02.855Z,1.30
2022-12-27T04:47:48.711Z,5.88
2022-12-27T04:50:45.656Z,0.98
2022-12-27T04:53:34.112Z,2.15
2022-12-27T04:56:01.125Z,3.65
2022-12-27T04:58:28.220Z,0.98
2022-12-27T05:01:16.115Z,2.33
2022-12-27T05:03:44.144Z,1.02
2022-12-27T05:06:11.595Z,2.70
2022-12-27T05:08:57.392Z,1.17
2022-12-27T05:11:42.780Z,3.20
2022-12-27T05:14:13.242Z,2.22
2022-12-27T05:16:42.460Z,1.75
2022-12-27T05:19:11.384Z,1.23
2022-12-27T05:21:40.262Z,4.05
2022-12-27T05:24:25.569Z,1.83
2022-12-27T05:26:55.990Z,1.30
2022-12-27T05:29:22.596Z,1.90
2022-12-27T05:31:49.368Z,3.42
2022-12-27T05:34:16.139Z,1.38
2022-12-27T05:36:42.775Z,1.58
2022-12-27T05:39:09.441Z,0.77
2022-12-27T05:41:36.120Z,0.88
2022-12-27T05:44:07.114Z,3.05
2022-12-27T05:46:35.216Z,0.68
2022-12-27T05:49:01.978Z,1.05
2022-12-27T05:51:28.642Z,1.55
2022-12-27T05:53:55.332Z,2.95
2022-12-27T05:56:22.150Z,3.22
2022-12-27T05:58:48.853Z,1.33
2022-12-27T06:01:17.835Z,2.88
2022-12-27T06:03:45.271Z,1.92
2022-12-27T06:06:13.119Z,3.20
2022-12-27T06:08:40.751Z,2.45
2022-12-27T06:11:15.209Z,1.88
2022-12-27T06:13:43.350Z,0.80
2022-12-27T06:16:12.433Z,1.88
2022-12-27T06:18:40.857Z,3.90
2022-12-27T06:21:10.441Z,3.00
2022-12-27T06:23:39.401Z,2.33
2022-12-27T06:26:12.339Z,1.90
2022-12-27T06:28:39.019Z,3.92
2022-12-27T06:31:05.926Z,2.03
2022-12-27T06:33:32.826Z,4.20
2022-12-27T06:35:59.515Z,1.70
2022-12-27T06:38:26.262Z,1.83
2022-12-27T06:40:52.891Z,3.13
2022-12-27T06:43:19.563Z,4.05
2022-12-27T06:45:55.847Z,4.13
2022-12-27T06:48:22.513Z,2.33
2022-12-27T06:50:49.131Z,1.42
2022-12-27T06:53:15.843Z,3.25
2022-12-27T06:55:42.476Z,3.70
2022-12-27T06:58:09.231Z,3.17
2022-12-27T07:00:36.154Z,8.10
2022-12-27T07:03:06.162Z,4.10
2022-12-27T07:05:36.458Z,4.28
2022-12-27T07:08:03.206Z,3.63
2022-12-27T07:10:29.924Z,6.15
2022-12-27T07:12:57.274Z,3.75
2022-12-27T07:15:24.624Z,2.70
2022-12-27T07:17:51.448Z,5.13
2022-12-27T07:20:18.304Z,4.40
2022-12-27T07:22:45.041Z,2.50
2022-12-27T07:25:11.765Z,3.75
2022-12-27T07:27:38.424Z,1.70
2022-12-27T07:30:06.393Z,4.40
2022-12-27T07:32:33.142Z,1.73
2022-12-27T07:34:59.880Z,3.17
2022-12-27T07:37:26.624Z,3.72
2022-12-27T07:39:53.320Z,5.57
2022-12-27T07:42:20.004Z,6.00
2022-12-27T07:44:48.368Z,7.35
2022-12-27T07:47:15.053Z,10.20
2022-12-27T07:49:41.701Z,3.42
2022-12-27T07:52:08.375Z,7.43
2022-12-27T07:54:35.224Z,3.25
2022-12-27T07:57:01.861Z,2.00
2022-12-27T07:59:29.232Z,3.05
2022-12-27T08:02:05.073Z,3.90
2022-12-27T08:04:33.973Z,4.13
2022-12-27T08:07:27.135Z,2.17
2022-12-27T08:09:53.797Z,1.63
2022-12-27T08:12:20.485Z,4.25
2022-12-27T08:14:47.114Z,2.28
2022-12-27T08:17:27.218Z,1.90
2022-12-27T08:19:55.340Z,3.00
2022-12-27T08:22:23.689Z,3.53
2022-12-27T08:24:51.182Z,5.55
2022-12-27T08:27:22.930Z,3.15
2022-12-27T08:29:49.874Z,2.92
2022-12-27T08:32:16.913Z,3.65
2022-12-27T08:34:43.586Z,1.45
2022-12-27T08:37:10.299Z,1.80
2022-12-27T08:39:36.942Z,5.55
2022-12-27T08:42:03.828Z,4.10
2022-12-27T08:44:30.523Z,2.40
2022-12-27T08:46:57.287Z,2.80
2022-12-27T08:49:24.003Z,1.83
2022-12-27T08:51:50.703Z,3.45
2022-12-27T08:54:42.699Z,2.17
2022-12-27T08:57:09.344Z,1.55
2022-12-27T08:59:36.020Z,1.63
2022-12-27T09:02:02.875Z,1.90
2022-12-27T09:04:29.608Z,1.58
2022-12-27T09:06:56.250Z,1.25
2022-12-27T09:09:22.897Z,1.58
2022-12-27T09:11:49.546Z,2.67
2022-12-27T09:14:16.277Z,3.25
2022-12-27T09:16:43.006Z,1.60
2022-12-27T09:19:10.385Z,2.83
2022-12-27T09:21:40.594Z,3.47
2022-12-27T09:24:10.249Z,3.22
2022-12-27T09:26:36.939Z,3.65
2022-12-27T09:29:03.661Z,3.72
2022-12-27T09:31:30.801Z,3.53
2022-12-27T09:33:58.144Z,7.53
2022-12-27T09:36:29.038Z,4.13
2022-12-27T09:38:57.364Z,3.03
2022-12-27T09:44:38.193Z,2.15
2022-12-27T09:47:12.821Z,5.05
2022-12-27T09:49:47.522Z,2.53
2022-12-27T09:52:41.533Z,1.45
2022-12-27T09:55:17.780Z,7.10
2022-12-27T09:57:46.916Z,4.20
2022-12-27T10:00:34.157Z,1.98
2022-12-27T10:03:05.528Z,2.50
2022-12-27T10:05:35.088Z,1.75
2022-12-27T10:08:01.765Z,2.83
2022-12-27T10:10:41.727Z,2.45
2022-12-27T10:13:20.543Z,2.45
2022-12-27T10:16:09.618Z,3.22
2022-12-27T10:19:07.753Z,7.72
2022-12-27T10:21:39.498Z,2.50
2022-12-27T10:24:20.825Z,1.58
2022-12-27T10:26:47.609Z,2.28
2022-12-27T10:29:21.831Z,4.68
2022-12-27T10:31:48.832Z,5.15
2022-12-27T10:34:17.943Z,1.30
2022-12-27T10:36:45.401Z,2.42
2022-12-27T10:39:18.825Z,3.85
2022-12-27T10:41:57.641Z,3.72
2022-12-27T10:44:24.449Z,2.88
2022-12-27T10:46:53.962Z,2.67
2022-12-27T10:49:23.219Z,2.15
2022-12-27T10:51:52.207Z,1.73
2022-12-27T10:54:23.883Z,1.98
2022-12-27T10:56:51.245Z,1.40
2022-12-27T10:59:21.576Z,3.00
2022-12-27T11:02:08.235Z,4.80
2022-12-27T11:04:35.001Z,3.03
2022-12-27T11:07:02.251Z,3.35
2022-12-27T11:09:50.758Z,1.75
2022-12-27T11:12:23.774Z,6.80
2022-12-27T11:15:15.791Z,1.25
2022-12-27T11:17:48.971Z,1.20
2022-12-27T11:20:47.919Z,2.50
2022-12-27T11:23:20.964Z,2.10
2022-12-27T11:26:08.043Z,5.15
2022-12-27T11:28:38.475Z,1.42
2022-12-27T11:31:11.880Z,1.95
2022-12-27T11:33:49.945Z,1.77
2022-12-27T11:36:26.464Z,3.45
2022-12-27T11:38:53.172Z,2.83
2022-12-27T11:41:36.377Z,1.52
2022-12-27T11:44:34.112Z,2.38
2022-12-27T11:47:06.392Z,2.75
2022-12-27T11:49:43.103Z,1.35
2022-12-27T11:52:28.264Z,2.70
2022-12-27T11:55:40.076Z,4.28
2022-12-27T11:58:18.847Z,3.13
2022-12-27T12:01:07.199Z,1.85
2022-12-27T12:03:42.547Z,4.65
2022-12-27T12:06:34.443Z,1.90
2022-12-27T12:09:04.417Z,2.47
2022-12-27T12:12:06.144Z,2.50
2022-12-27T12:14:35.689Z,0.93
2022-12-27T12:17:23.084Z,2.47
2022-12-27T12:20:14.541Z,2.67
2022-12-27T12:23:00.034Z,1.33
2022-12-27T12:25:54.830Z,1.52
2022-12-27T12:28:56.973Z,2.25
2022-12-27T12:31:20.139Z,3.75
2022-12-27T12:33:59.003Z,1.55
2022-12-27T12:36:40.896Z,3.53
2022-12-27T12:39:26.158Z,4.15
2022-12-27T12:42:05.388Z,2.72
2022-12-27T12:44:41.132Z,2.35
2022-12-27T12:47:47.282Z,2.80
2022-12-27T12:50:40.206Z,2.45
2022-12-27T12:53:32.009Z,3.05
2022-12-27T12:56:20.328Z,2.80
2022-12-27T12:59:02.376Z,1.90
2022-12-27T13:01:51.129Z,2.10
2022-12-27T13:07:11.145Z,5.70
2022-12-27T13:09:40.498Z,2.70
2022-12-27T13:12:16.105Z,2.58
2022-12-27T13:14:55.217Z,2.85
2022-12-27T13:17:46.748Z,5.13
2022-12-27T13:20:42.190Z,1.85
2022-12-27T13:23:37.566Z,5.25
2022-12-27T13:26:45.211Z,3.35
2022-12-27T13:29:39.582Z,2.67
2022-12-27T13:32:28.255Z,3.20
2022-12-27T13:35:37.863Z,1.95
2022-12-27T13:38:41.821Z,3.20
2022-12-27T13:41:30.192Z,3.28
2022-12-27T13:44:06.480Z,4.15
2022-12-27T13:47:06.603Z,2.38
2022-12-27T13:49:51.576Z,2.92
2022-12-27T13:52:46.176Z,3.67
2022-12-27T13:55:15.922Z,2.30
2022-12-27T13:57:51.853Z,2.85
2022-12-27T14:00:22.432Z,3.35
2022-12-27T14:03:19.708Z,3.10
2022-12-27T14:06:07.828Z,5.03
2022-12-27T14:09:15.792Z,2.95
2022-12-27T14:12:06.738Z,3.22
2022-12-27T14:14:39.024Z,1.73
2022-12-27T14:17:25.862Z,2.00
2022-12-27T14:20:15.387Z,1.88
2022-12-27T14:23:21.272Z,1.77
2022-12-27T14:25:54.284Z,3.35
2022-12-27T14:28:39.158Z,2.28
2022-12-27T14:31:31.164Z,2.60
2022-12-27T14:34:16.758Z,1.27
2022-12-27T14:37:14.992Z,3.90
2022-12-27T14:40:06.588Z,3.58
2022-12-27T14:43:12.146Z,2.78
2022-12-27T14:46:03.180Z,3.72
2022-12-27T14:48:32.764Z,3.83
2022-12-27T14:51:59.288Z,3.83
2022-12-27T14:57:48.113Z,3.58
2022-12-27T15:00:17.690Z,9.13
2022-12-27T15:03:21.600Z,5.60
2022-12-27T15:06:36.565Z,6.95
2022-12-27T15:09:07.490Z,5.35
2022-12-27T15:11:54.742Z,5.75
2022-12-27T15:14:30.325Z,5.63
2022-12-27T15:17:33.761Z,2.67
2022-12-27T15:20:12.898Z,6.32
2022-12-27T15:23:01.037Z,6.45
2022-12-27T15:26:07.312Z,5.28
2022-12-27T15:28:58.747Z,8.52
2022-12-27T15:31:42.734Z,4.35
2022-12-27T15:34:12.026Z,2.90
2022-12-27T15:36:47.666Z,5.47
2022-12-27T15:39:50.222Z,2.85
2022-12-27T15:43:12.626Z,5.07
2022-12-27T15:45:45.064Z,4.57
2022-12-27T15:50:49.045Z,9.02
2022-12-27T15:53:35.573Z,3.83
2022-12-27T15:56:41.652Z,8.05
2022-12-27T15:59:36.638Z,8.80
2022-12-27T16:02:22.548Z,9.38
2022-12-27T16:04:53.926Z,9.30
2022-12-27T16:07:43.053Z,11.73
2022-12-27T16:10:35.425Z,10.15
2022-12-27T16:13:05.050Z,10.40
2022-12-27T16:15:35.041Z,9.82
2022-12-27T16:18:03.246Z,9.43
2022-12-27T16:20:32.412Z,9.00
2022-12-27T16:23:03.468Z,8.23
2022-12-27T16:25:34.063Z,9.45
2022-12-27T16:28:16.068Z,10.50
2022-12-27T16:30:53.014Z,18.65
2022-12-27T16:33:25.660Z,15.18
2022-12-27T16:36:16.004Z,11.70
2022-12-27T16:38:46.052Z,17.38
2022-12-27T16:41:18.318Z,7.85
2022-12-27T16:44:05.195Z,17.50
2022-12-27T16:46:54.048Z,12.30
2022-12-27T16:49:23.868Z,9.68
2022-12-27T16:52:19.476Z,8.18
2022-12-27T16:55:18.431Z,8.80
2022-12-27T16:57:48.013Z,9.02
2022-12-27T17:00:39.718Z,13.15
2022-12-27T17:03:20.964Z,9.68
2022-12-27T17:09:05.283Z,11.38
2022-12-27T17:11:32.667Z,10.25
2022-12-27T17:14:10.573Z,8.45
2022-12-27T17:16:42.952Z,10.23
2022-12-27T17:21:48.049Z,10.10
2022-12-27T17:24:20.067Z,11.48
2022-12-27T17:27:08.751Z,11.70
2022-12-27T17:30:06.933Z,13.82
2022-12-27T17:33:04.748Z,19.35
2022-12-27T17:35:52.285Z,24.35
2022-12-27T17:38:44.994Z,33.15
2022-12-27T17:41:49.400Z,24.40
2022-12-27T17:44:45.607Z,43.47
2022-12-27T17:47:40.452Z,31.42
2022-12-27T17:50:17.650Z,21.02
2022-12-27T17:53:40.127Z,18.52
2022-12-27T17:56:39.339Z,14.40
2022-12-27T17:59:15.175Z,15.52
2022-12-27T18:01:57.479Z,15.50
2022-12-27T18:04:39.176Z,21.50
2022-12-27T18:07:08.997Z,16.65
2022-12-27T18:09:49.368Z,14.77
2022-12-27T18:12:28.615Z,16.48
2022-12-27T18:15:02.976Z,16.08
2022-12-27T18:18:06.236Z,18.27
2022-12-27T18:20:40.626Z,17.13
2022-12-27T18:23:15.264Z,22.23
2022-12-27T18:25:44.921Z,17.42
2022-12-27T18:28:33.690Z,10.98
2022-12-27T18:31:21.167Z,12.60
2022-12-27T18:33:58.024Z,13.50
2022-12-27T18:36:33.821Z,16.40
2022-12-27T18:39:08.499Z,17.00
2022-12-27T18:41:42.152Z,29.50
2022-12-27T18:44:27.404Z,31.20
2022-12-27T18:46:57.152Z,29.58
2022-12-27T18:49:25.271Z,26.13
2022-12-27T18:51:53.298Z,24.08
2022-12-27T18:54:38.309Z,21.10
2022-12-27T18:57:07.232Z,21.08
2022-12-27T18:59:36.161Z,18.90
2022-12-27T19:02:43.378Z,17.02
2022-12-27T19:05:27.003Z,13.82
2022-12-27T19:07:56.719Z,22.92
2022-12-27T19:10:26.309Z,20.67
2022-12-27T19:12:54.985Z,13.85
2022-12-27T19:15:28.717Z,15.18
2022-12-27T19:18:00.435Z,10.35
2022-12-27T19:20:30.405Z,13.15
2022-12-27T19:23:05.404Z,14.55
2022-12-27T19:25:39.309Z,12.73
2022-12-27T19:28:12.085Z,11.00
2022-12-27T19:30:43.800Z,9.35
2022-12-27T19:33:32.788Z,21.30
2022-12-27T19:36:01.786Z,19.20
2022-12-27T19:38:31.519Z,14.45
2022-12-27T19:41:03.752Z,13.85
2022-12-27T19:46:00.901Z,11.65
2022-12-27T19:48:27.700Z,14.98
2022-12-27T19:50:55.105Z,16.70
2022-12-27T19:53:28.328Z,13.98
2022-12-27T19:55:55.235Z,14.45
2022-12-27T19:58:24.364Z,12.68
2022-12-27T20:00:51.229Z,12.60
2022-12-27T20:03:18.131Z,14.05
2022-12-27T20:06:13.653Z,15.20
2022-12-27T20:08:42.747Z,14.82
2022-12-27T20:11:14.591Z,13.43
2022-12-27T20:13:41.367Z,11.48
2022-12-27T20:16:10.189Z,8.75
2022-12-27T20:18:38.824Z,9.20
2022-12-27T20:21:06.405Z,12.93
2022-12-27T20:23:33.146Z,12.65
2022-12-27T20:25:59.962Z,13.55
2022-12-27T20:28:26.631Z,10.93
2022-12-27T20:30:53.294Z,11.05
2022-12-27T20:33:20.235Z,10.98
2022-12-27T20:35:57.196Z,10.38
2022-12-27T20:38:25.205Z,10.07
2022-12-27T20:40:52.602Z,11.80
2022-12-27T20:43:19.633Z,9.48
2022-12-27T20:45:47.315Z,11.23
2022-12-27T20:48:14.212Z,9.40
2022-12-27T20:50:41.391Z,11.95
2022-12-27T20:53:08.175Z,9.60
2022-12-27T20:55:34.889Z,11.35
2022-12-27T20:58:01.669Z,10.63
2022-12-27T21:00:28.589Z,10.45
2022-12-27T21:02:55.543Z,11.98
2022-12-27T21:05:22.304Z,14.88
2022-12-27T21:07:48.991Z,12.50
2022-12-27T21:10:15.782Z,14.70
2022-12-27T21:12:42.455Z,10.73
2022-12-27T21:15:09.707Z,10.82
2022-12-27T21:17:36.467Z,9.73
2022-12-27T21:20:03.607Z,7.93
2022-12-27T21:22:30.320Z,11.07
2022-12-27T21:24:57.256Z,9.23
2022-12-27T21:27:23.896Z,10.25
2022-12-27T21:29:50.587Z,11.27
2022-12-27T21:32:18.083Z,13.95
2022-12-27T21:34:44.789Z,11.88
2022-12-27T21:37:13.456Z,14.90
2022-12-27T21:39:40.582Z,21.58
2022-12-27T21:42:07.353Z,23.83
2022-12-27T21:44:36.889Z,20.05
2022-12-27T21:47:03.739Z,17.08
2022-12-27T21:49:30.724Z,16.35
2022-12-27T21:51:57.398Z,17.55
2022-12-27T21:54:24.172Z,13.90
2022-12-27T21:56:51.029Z,12.40
2022-12-27T21:59:17.732Z,12.95
2022-12-27T22:01:51.732Z,10.07
2022-12-27T22:04:20.895Z,10.95
2022-12-27T22:06:48.268Z,11.20
2022-12-27T22:09:15.601Z,12.93
2022-12-27T22:11:42.557Z,10.27
2022-12-27T22:14:09.469Z,15.20
2022-12-27T22:16:38.829Z,13.48
2022-12-27T22:19:10.965Z,11.77
2022-12-27T22:21:39.179Z,14.48
2022-12-27T22:24:07.029Z,11.73
2022-12-27T22:26:37.369Z,12.70
2022-12-27T22:29:06.729Z,12.07
2022-12-27T22:31:35.434Z,12.75
2022-12-27T22:34:03.537Z,11.32
2022-12-27T22:36:30.730Z,12.38
2022-12-27T22:38:59.303Z,13.77
2022-12-27T22:41:28.651Z,13.18
2022-12-27T22:44:00.722Z,15.40
2022-12-27T22:46:39.387Z,12.93
2022-12-27T22:49:15.727Z,13.32
2022-12-27T22:51:42.854Z,13.90
2022-12-27T22:54:09.506Z,13.73
2022-12-27T22:56:40.135Z,21.83
2022-12-27T22:59:16.299Z,15.40
2022-12-27T23:01:45.164Z,11.80
2022-12-27T23:04:13.933Z,11.95
2022-12-27T23:06:42.081Z,12.70
2022-12-27T23:09:09.367Z,10.80
2022-12-27T23:11:40.789Z,10.18
2022-12-27T23:14:13.940Z,11.35
2022-12-27T23:16:46.593Z,9.52
2022-12-27T23:19:16.133Z,9.75
2022-12-27T23:21:43.279Z,10.77
2022-12-27T23:24:11.026Z,12.13
2022-12-27T23:26:38.452Z,11.10
2022-12-27T23:29:06.178Z,10.15
2022-12-27T23:31:33.710Z,10.93
2022-12-27T23:34:00.868Z,9.75
2022-12-27T23:36:27.691Z,8.73
2022-12-27T23:38:55.412Z,8.88
2022-12-27T23:41:24.336Z,9.50
2022-12-27T23:43:54.288Z,9.38
2022-12-27T23:46:29.963Z,8.38
2022-12-27T23:48:58.608Z,8.45
2022-12-27T23:51:26.318Z,8.10
2022-12-27T23:53:52.976Z,12.35
2022-12-27T23:56:23.500Z,8.90
2022-12-27T23:58:52.970Z,11.27
